Tecumseh, Oklahoma
Current Conditions -  °F | °C
As of 10:55 AM on Saturday 22 Nov 2014 (Local Time) from KSNL Reporting Station
Light Rain Light Rain  
Wind Chill: 59°   Ceiling: 7500
Heat Index: 59°   Visibility: 10mi
Dew Point: 59°   Wind: 8mph
Humidity: 100%   Direction: 140°SE
Pressure: 30.02"   Gusts: NA
Location:  35.26°N, 96.94°W
Report Text: KSNL 221655Z AUTO 14007KT 10SM -RA SCT048 BKN075 OVC085 15/15 A3002 RMK AO2 LTG DSNT S THRU W P0010
Loading
Personal Weather Stations






























Interactive Weather Map New forecast layout! Learn more

10-Day Weather Forecast

Advertisements
Track Severe Weather on mobile